createdAt,value
2023-04-24T00:00:21.676Z,100031.16
2023-04-24T00:02:51.696Z,100041.22
2023-04-24T00:05:20.847Z,100036.53
2023-04-24T00:07:49.265Z,100027.63
2023-04-24T00:10:17.514Z,100025.63
2023-04-24T00:12:45.798Z,100026.81
2023-04-24T00:15:14.292Z,100032.22
2023-04-24T00:17:42.660Z,100037.97
2023-04-24T00:20:14.313Z,100043.78
2023-04-24T00:22:42.700Z,100039.84
2023-04-24T00:25:11.563Z,100042.94
2023-04-24T00:27:39.831Z,100049.53
2023-04-24T00:30:09.981Z,100044.13
2023-04-24T00:32:38.390Z,100048.31
2023-04-24T00:35:08.567Z,100052.16
2023-04-24T00:37:38.255Z,100050.19
2023-04-24T00:40:08.508Z,100044.38
2023-04-24T00:42:37.132Z,100044.75
2023-04-24T00:45:06.886Z,100047.06
2023-04-24T00:47:35.747Z,100045.50
2023-04-24T00:50:05.111Z,100036.91
2023-04-24T00:52:34.097Z,100036.91
2023-04-24T00:55:03.890Z,100040.03
2023-04-24T00:57:32.725Z,100040.03
2023-04-24T01:00:01.241Z,100038.09
2023-04-24T01:02:30.690Z,100039.25
2023-04-24T01:04:59.536Z,100033.00
2023-04-24T01:07:28.126Z,100045.38
2023-04-24T01:09:56.761Z,100041.91
2023-04-24T01:12:26.386Z,100042.28
2023-04-24T01:14:54.785Z,100039.56
2023-04-24T01:17:23.111Z,100039.19
2023-04-24T01:19:54.797Z,100040.34
2023-04-24T01:22:24.718Z,100032.94
2023-04-24T01:24:54.019Z,100038.75
2023-04-24T01:27:22.657Z,100025.97
2023-04-24T01:29:52.939Z,100031.38
2023-04-24T01:32:22.093Z,100030.25
2023-04-24T01:34:51.594Z,100033.72
2023-04-24T01:37:19.815Z,100024.81
2023-04-24T01:39:49.494Z,100020.19
2023-04-24T01:42:18.449Z,100025.22
2023-04-24T01:44:47.386Z,100030.25
2023-04-24T01:47:16.185Z,100011.31
2023-04-24T01:49:44.797Z,100031.38
2023-04-24T01:52:13.410Z,100024.44
2023-04-24T01:54:41.812Z,100024.44
2023-04-24T01:57:11.761Z,100013.59
2023-04-24T01:59:40.797Z,100017.84
2023-04-24T02:02:09.279Z,100028.31
2023-04-24T02:04:39.283Z,100022.13
2023-04-24T02:07:07.503Z,100023.63
2023-04-24T02:09:35.810Z,100011.66
2023-04-24T02:12:04.198Z,100014.34
2023-04-24T02:14:33.874Z,100019.00
2023-04-24T02:17:02.196Z,100012.06
2023-04-24T02:19:30.536Z,100027.13
2023-04-24T02:21:58.761Z,100022.91
2023-04-24T02:24:27.167Z,100021.31
2023-04-24T02:26:55.764Z,100022.91
2023-04-24T02:29:24.108Z,100020.19
2023-04-24T02:31:53.760Z,100029.84
2023-04-24T02:34:22.051Z,100040.66
2023-04-24T02:36:50.286Z,100029.47
2023-04-24T02:39:19.743Z,100024.81
2023-04-24T02:41:48.402Z,100032.94
2023-04-24T02:44:18.269Z,100031.78
2023-04-24T02:46:46.524Z,100029.09
2023-04-24T02:49:16.408Z,100026.38
2023-04-24T02:51:44.732Z,100033.34
2023-04-24T02:54:12.999Z,100025.59
2023-04-24T02:56:41.563Z,100034.94
2023-04-24T02:59:09.918Z,100030.28
2023-04-24T03:01:38.271Z,100031.78
2023-04-24T03:04:06.883Z,100039.13
2023-04-24T03:06:37.192Z,100033.72
2023-04-24T03:09:06.271Z,100028.31
2023-04-24T03:11:34.506Z,100032.94
2023-04-24T03:14:02.846Z,100035.25
2023-04-24T03:16:31.213Z,100040.66
2023-04-24T03:18:59.505Z,100045.28
2023-04-24T03:21:28.405Z,100040.66
2023-04-24T04:28:48.691Z,100048.41
2023-04-24T04:31:16.924Z,100053.13
2023-04-24T04:33:45.208Z,100057.13
2023-04-24T04:36:13.343Z,100054.59
2023-04-24T04:38:42.956Z,100058.53
2023-04-24T04:41:11.709Z,100057.41
2023-04-24T04:43:40.705Z,100054.75
2023-04-24T04:46:11.710Z,100048.28
2023-04-24T04:48:40.597Z,100069.91
2023-04-24T04:51:08.756Z,100066.06
2023-04-24T04:53:37.128Z,100062.25
2023-04-24T04:56:05.897Z,100062.25
2023-04-24T04:58:34.091Z,100064.19
2023-04-24T05:01:02.354Z,100060.66
2023-04-24T05:03:32.055Z,100063.03
2023-04-24T05:06:01.003Z,100070.78
2023-04-24T05:08:29.237Z,100069.22
2023-04-24T05:10:57.768Z,100071.59
2023-04-24T05:13:38.344Z,100062.34
2023-04-24T05:16:07.917Z,100071.59
2023-04-24T05:18:37.638Z,100070.78
2023-04-24T05:21:06.169Z,100064.88
2023-04-24T05:23:34.395Z,100069.91
2023-04-24T05:26:02.702Z,100070.63
2023-04-24T05:28:31.151Z,100077.16
2023-04-24T05:31:00.427Z,100071.28
2023-04-24T05:33:28.854Z,100073.22
2023-04-24T05:35:58.698Z,100074.28
2023-04-24T05:38:26.930Z,100079.69
2023-04-24T05:40:55.226Z,100092.78
2023-04-24T05:43:23.511Z,100094.59
2023-04-24T05:45:52.027Z,100088.03
2023-04-24T05:48:20.179Z,100075.25
2023-04-24T05:50:49.009Z,100084.84
2023-04-24T05:53:18.756Z,100085.97
2023-04-24T05:55:47.434Z,100087.50
2023-04-24T05:58:15.632Z,100090.16
2023-04-24T06:00:44.389Z,100083.94
2023-04-24T06:03:12.892Z,100082.38
2023-04-24T06:05:41.261Z,100089.69
2023-04-24T06:08:09.542Z,100093.19
2023-04-24T06:10:39.133Z,100100.94
2023-04-24T06:13:07.752Z,100090.94
2023-04-24T06:15:36.266Z,100105.25
2023-04-24T06:18:04.957Z,100108.75
2023-04-24T06:20:33.219Z,100116.84
2023-04-24T06:23:01.594Z,100118.03
2023-04-24T06:25:30.249Z,100118.81
2023-04-24T06:28:00.006Z,100125.78
2023-04-24T06:30:29.164Z,100122.66
2023-04-24T06:33:09.233Z,100139.59
2023-04-24T06:35:47.197Z,100134.84
2023-04-24T06:38:17.013Z,100134.81
2023-04-24T06:40:45.497Z,100138.19
2023-04-24T06:43:15.976Z,100140.06
2023-04-24T06:45:45.200Z,100129.91
2023-04-24T06:48:13.641Z,100129.78
2023-04-24T06:50:41.810Z,100130.44
2023-04-24T06:53:12.138Z,100136.94
2023-04-24T06:55:40.427Z,100135.31
2023-04-24T06:58:09.041Z,100134.81
2023-04-24T07:00:38.707Z,100135.03
2023-04-24T07:03:07.412Z,100133.84
2023-04-24T07:05:36.128Z,100126.78
2023-04-24T07:08:05.231Z,100127.91
2023-04-24T07:10:36.977Z,100127.81
2023-04-24T07:13:05.246Z,100141.16
2023-04-24T07:15:33.666Z,100145.25
2023-04-24T07:18:05.772Z,100144.06
2023-04-24T07:20:35.059Z,100161.72
2023-04-24T07:23:03.360Z,100174.78
2023-04-24T07:25:32.396Z,100183.22
2023-04-24T07:28:01.063Z,100179.41
2023-04-24T07:30:29.887Z,100184.00
2023-04-24T07:32:58.314Z,100190.97
2023-04-24T07:35:28.645Z,100187.91
2023-04-24T07:37:56.895Z,100192.66
2023-04-24T07:40:25.298Z,100202.75
2023-04-24T07:42:53.522Z,100202.81
2023-04-24T07:45:21.730Z,100207.16
2023-04-24T07:47:50.061Z,100213.03
2023-04-24T07:50:18.419Z,100223.91
2023-04-24T07:52:48.602Z,100218.59
2023-04-24T07:55:17.130Z,100235.19
2023-04-24T07:57:45.436Z,100239.84
2023-04-24T08:00:15.126Z,100245.22
2023-04-24T08:02:43.579Z,100251.75
2023-04-24T08:05:12.112Z,100251.34
2023-04-24T08:07:40.853Z,100269.34
2023-04-24T08:10:12.919Z,100278.16
2023-04-24T08:12:41.322Z,100291.66
2023-04-24T08:15:10.975Z,100301.22
2023-04-24T08:17:39.365Z,100321.59
2023-04-24T08:20:14.244Z,100330.81
2023-04-24T08:22:42.696Z,100337.34
2023-04-24T08:25:13.110Z,100351.88
2023-04-24T08:27:41.463Z,100368.41
2023-04-24T08:30:10.749Z,100370.75
2023-04-24T08:32:39.485Z,100382.34
2023-04-24T08:35:10.178Z,100387.72
2023-04-24T08:37:38.934Z,100389.28
2023-04-24T08:40:16.977Z,100396.25
2023-04-24T08:42:46.808Z,100405.47
2023-04-24T08:45:15.894Z,100418.84
2023-04-24T08:47:45.468Z,100424.53
2023-04-24T08:50:14.191Z,100423.75
2023-04-24T08:52:44.335Z,100430.59
2023-04-24T08:55:12.982Z,100439.47
2023-04-24T08:57:44.890Z,100441.91
2023-04-24T09:00:14.988Z,100442.34
2023-04-24T09:02:45.694Z,100452.81
2023-04-24T09:05:16.003Z,100455.59
2023-04-24T09:07:47.093Z,100471.06
2023-04-24T09:10:15.377Z,100462.63
2023-04-24T09:12:47.260Z,100473.50
2023-04-24T09:15:16.291Z,100477.00
2023-04-24T09:17:45.587Z,100478.91
2023-04-24T09:20:13.916Z,100485.94
2023-04-24T09:22:42.216Z,100482.56
2023-04-24T09:25:13.702Z,100479.97
2023-04-24T09:27:47.331Z,100495.78
2023-04-24T09:30:16.283Z,100496.31
2023-04-24T09:32:44.635Z,100509.53
2023-04-24T09:35:15.749Z,100511.22
2023-04-24T09:37:44.773Z,100508.16
2023-04-24T09:40:18.570Z,100519.75
2023-04-24T09:42:53.420Z,100527.06
2023-04-24T09:45:22.198Z,100527.06
2023-04-24T09:47:55.244Z,100525.91
2023-04-24T09:50:23.970Z,100544.56
2023-04-24T09:53:00.438Z,100550.81
2023-04-24T09:55:29.039Z,100559.34
2023-04-24T09:58:01.217Z,100556.91
2023-04-24T10:00:31.343Z,100559.63
2023-04-24T10:03:02.212Z,100566.94
2023-04-24T10:05:32.248Z,100577.66
2023-04-24T10:08:05.724Z,100575.66
2023-04-24T10:10:35.829Z,100576.34
2023-04-24T10:13:06.342Z,100579.81
2023-04-24T10:15:34.829Z,100585.22
2023-04-24T10:18:04.308Z,100595.66
2023-04-24T10:20:32.760Z,100601.16
2023-04-24T10:23:02.656Z,100588.59
2023-04-24T10:25:33.637Z,100591.50
2023-04-24T10:28:05.428Z,100595.25
2023-04-24T10:30:36.999Z,100601.22
2023-04-24T10:33:06.621Z,100600.56
2023-04-24T10:35:38.355Z,100617.81
2023-04-24T10:38:11.492Z,100623.56
2023-04-24T10:40:39.871Z,100622.31
2023-04-24T10:43:12.431Z,100632.28
2023-04-24T10:45:41.495Z,100629.03
2023-04-24T10:48:14.786Z,100638.53
2023-04-24T10:50:48.014Z,100641.06
2023-04-24T10:53:19.462Z,100643.75
2023-04-24T10:55:50.160Z,100636.50
2023-04-24T10:58:24.477Z,100636.09
2023-04-24T11:01:00.293Z,100639.94
2023-04-24T11:03:30.889Z,100647.50
2023-04-24T11:06:02.915Z,100648.81
2023-04-24T11:08:34.743Z,100645.88
2023-04-24T11:11:06.464Z,100653.19
2023-04-24T11:14:12.105Z,100650.84
2023-04-24T11:16:49.992Z,100661.53
2023-04-24T11:19:26.130Z,100658.47
2023-04-24T11:22:02.459Z,100671.31
2023-04-24T11:24:33.883Z,100671.72
2023-04-24T11:27:08.248Z,100684.09
2023-04-24T11:29:49.479Z,100676.00
2023-04-24T11:32:31.424Z,100679.41
2023-04-24T11:35:02.182Z,100688.56
2023-04-24T11:37:32.314Z,100693.91
2023-04-24T11:40:02.188Z,100700.41
2023-04-24T11:42:31.594Z,100696.22
2023-04-24T11:45:03.034Z,100704.25
2023-04-24T11:47:34.632Z,100702.22
2023-04-24T11:50:04.679Z,100712.34
2023-04-24T11:52:33.824Z,100712.50
2023-04-24T11:55:02.539Z,100720.13
2023-04-24T11:57:34.715Z,100719.63
2023-04-24T12:00:07.035Z,100727.88
2023-04-24T12:02:36.980Z,100731.03
2023-04-24T12:05:08.953Z,100739.13
2023-04-24T12:07:44.777Z,100734.91
2023-04-24T12:10:13.382Z,100736.94
2023-04-24T12:12:41.692Z,100743.47
2023-04-24T12:15:13.499Z,100749.66
2023-04-24T12:17:44.728Z,100751.31
2023-04-24T12:20:14.654Z,100749.06
2023-04-24T12:22:48.012Z,100754.53
2023-04-24T12:25:17.668Z,100752.69
2023-04-24T12:27:46.537Z,100760.47
2023-04-24T12:30:18.604Z,100764.06
2023-04-24T12:32:50.700Z,100761.50
2023-04-24T12:35:23.375Z,100757.75
2023-04-24T12:37:52.189Z,100769.44
2023-04-24T12:40:22.538Z,100772.56
2023-04-24T12:42:52.708Z,100778.41
2023-04-24T12:45:24.387Z,100768.00
2023-04-24T12:47:52.741Z,100776.25
2023-04-24T12:50:21.112Z,100783.28
2023-04-24T12:52:49.674Z,100785.44
2023-04-24T12:55:17.892Z,100769.34
2023-04-24T12:57:46.126Z,100774.47
2023-04-24T13:00:16.432Z,100778.88
2023-04-24T13:02:47.837Z,100785.97
2023-04-24T13:05:16.607Z,100782.22
2023-04-24T13:07:44.935Z,100789.69
2023-04-24T13:10:14.294Z,100786.63
2023-04-24T13:12:46.252Z,100795.25
2023-04-24T13:15:14.990Z,100793.06
2023-04-24T13:17:43.277Z,100797.03
2023-04-24T13:20:13.149Z,100793.25
2023-04-24T13:22:41.446Z,100787.13
2023-04-24T13:25:11.193Z,100804.88
2023-04-24T13:27:40.911Z,100809.44
2023-04-24T13:30:10.769Z,100809.44
2023-04-24T13:32:39.073Z,100807.13
2023-04-24T13:35:08.073Z,100812.56
2023-04-24T13:37:37.836Z,100800.53
2023-04-24T13:40:08.129Z,100795.47
2023-04-24T13:42:36.548Z,100803.16
2023-04-24T13:45:21.140Z,100803.25
2023-04-24T13:47:53.444Z,100799.81
2023-04-24T13:50:21.991Z,100803.53
2023-04-24T13:52:51.582Z,100809.13
2023-04-24T13:55:19.851Z,100803.75
2023-04-24T13:57:48.167Z,100800.63
2023-04-24T14:00:17.680Z,100793.03
2023-04-24T14:02:46.100Z,100795.31
2023-04-24T14:05:16.227Z,100812.78
2023-04-24T14:07:44.448Z,100808.50
2023-04-24T14:10:14.209Z,100812.00
2023-04-24T14:12:42.535Z,100813.94
2023-04-24T14:15:12.170Z,100814.72
2023-04-24T14:17:40.424Z,100818.22
2023-04-24T14:20:10.292Z,100799.59
2023-04-24T14:22:38.610Z,100802.19
2023-04-24T14:25:08.654Z,100803.72
2023-04-24T14:27:38.308Z,100812.56
2023-04-24T14:30:08.713Z,100810.94
2023-04-24T14:32:37.119Z,100804.31
2023-04-24T14:35:06.649Z,100811.94
2023-04-24T14:37:34.955Z,100821.09
2023-04-24T14:40:15.858Z,100810.63
2023-04-24T14:42:53.576Z,100815.59
2023-04-24T14:45:21.793Z,100814.44
2023-04-24T14:47:50.135Z,100816.47
2023-04-24T14:50:18.616Z,100816.16
2023-04-24T14:52:47.568Z,100818.16
2023-04-24T14:55:17.302Z,100804.22
2023-04-24T14:57:45.507Z,100810.50
2023-04-24T15:00:17.935Z,100823.34
2023-04-24T15:02:46.359Z,100818.34
2023-04-24T15:05:15.043Z,100809.59
2023-04-24T15:07:43.578Z,100821.72
2023-04-24T15:10:12.984Z,100824.88
2023-04-24T15:12:41.313Z,100830.28
2023-04-24T15:15:11.616Z,100834.47
2023-04-24T15:17:41.319Z,100844.13
2023-04-24T15:20:11.054Z,100840.94
2023-04-24T15:22:39.338Z,100848.28
2023-04-24T15:25:09.409Z,100833.22
2023-04-24T15:27:45.001Z,100844.06
2023-04-24T15:30:14.829Z,100838.22
2023-04-24T15:32:44.493Z,100843.28
2023-04-24T15:35:12.794Z,100841.72
2023-04-24T15:37:41.255Z,100854.06
2023-04-24T15:40:12.300Z,100846.31
2023-04-24T15:42:41.014Z,100843.94
2023-04-24T15:45:11.055Z,100846.59
2023-04-24T15:47:39.725Z,100854.72
2023-04-24T15:50:14.150Z,100847.31
2023-04-24T15:52:43.061Z,100846.47
2023-04-24T15:55:12.266Z,100847.59
2023-04-24T15:57:40.853Z,100846.09
2023-04-24T16:00:10.973Z,100856.94
2023-04-24T16:02:39.480Z,100849.19
2023-04-24T16:05:10.036Z,100849.97
2023-04-24T16:07:41.216Z,100850.28
2023-04-24T16:10:11.944Z,100837.84
2023-04-24T16:12:40.878Z,100852.88
2023-04-24T16:15:09.944Z,100845.13
2023-04-24T16:17:38.247Z,100850.56
2023-04-24T16:20:09.757Z,100850.63
2023-04-24T16:22:40.248Z,100849.84
2023-04-24T16:25:10.575Z,100855.25
2023-04-24T16:27:39.273Z,100854.44
2023-04-24T16:30:09.473Z,100854.44
2023-04-24T16:32:37.743Z,100843.56
2023-04-24T16:35:07.031Z,100852.47
2023-04-24T16:37:36.797Z,100847.06
2023-04-24T16:40:10.559Z,100863.72
2023-04-24T16:42:39.271Z,100858.31
2023-04-24T16:45:09.522Z,100866.16
2023-04-24T16:47:37.859Z,100870.03
2023-04-24T16:50:07.614Z,100863.72
2023-04-24T16:52:37.200Z,100862.13
2023-04-24T16:55:06.332Z,100879.47
2023-04-24T16:57:34.826Z,100877.09
2023-04-24T17:00:04.056Z,100873.50
2023-04-24T17:02:32.716Z,100870.31
2023-04-24T17:05:02.289Z,100871.38
2023-04-24T17:07:31.839Z,100875.16
2023-04-24T17:10:01.487Z,100880.50
2023-04-24T17:12:29.836Z,100877.81
2023-04-24T17:14:58.068Z,100861.13
2023-04-24T17:17:26.326Z,100880.88
2023-04-24T17:19:54.636Z,100883.56
2023-04-24T17:22:22.856Z,100877.72
2023-04-24T17:24:51.356Z,100882.00
2023-04-24T17:27:21.101Z,100876.16
2023-04-24T17:29:49.910Z,100884.22
2023-04-24T17:32:18.287Z,100888.75
2023-04-24T17:34:47.760Z,100888.25
2023-04-24T17:37:16.269Z,100887.06
2023-04-24T17:39:44.520Z,100886.97
2023-04-24T17:42:12.938Z,100887.28
2023-04-24T17:44:42.539Z,100890.22
2023-04-24T17:47:10.871Z,100902.91
2023-04-24T17:49:39.593Z,100890.84
2023-04-24T17:52:08.286Z,100896.91
2023-04-24T17:54:36.775Z,100889.06
2023-04-24T17:57:05.098Z,100897.41
2023-04-24T17:59:33.353Z,100892.72
2023-04-24T18:02:03.022Z,100899.59
2023-04-24T18:04:31.513Z,100900.41
2023-04-24T18:07:00.067Z,100899.56
2023-04-24T18:09:28.320Z,100898.38
2023-04-24T18:11:57.731Z,100899.56
2023-04-24T18:14:28.379Z,100904.50
2023-04-24T18:16:58.224Z,100908.69
2023-04-24T18:19:27.902Z,100905.88
2023-04-24T18:21:56.199Z,100914.72
2023-04-24T18:24:24.720Z,100911.13
2023-04-24T18:26:52.967Z,100911.84
2023-04-24T18:29:21.248Z,100913.66
2023-04-24T18:31:50.265Z,100919.34
2023-04-24T18:34:18.737Z,100917.31
2023-04-24T18:36:48.336Z,100921.44
2023-04-24T18:39:16.589Z,100922.09
2023-04-24T18:41:44.854Z,100931.28
2023-04-24T18:44:13.115Z,100937.69
2023-04-24T18:46:41.646Z,100925.69
2023-04-24T18:49:10.038Z,100926.72
2023-04-24T18:51:52.473Z,100937.44
2023-04-24T18:54:23.275Z,100934.63
2023-04-24T18:56:51.569Z,100931.06
2023-04-24T18:59:19.865Z,100930.94
2023-04-24T19:01:48.777Z,100935.50
2023-04-24T19:04:18.117Z,100938.84
2023-04-24T19:06:46.390Z,100948.00
2023-04-24T19:09:14.643Z,100956.00
2023-04-24T19:11:44.920Z,100951.28
2023-04-24T19:14:13.597Z,100958.50
2023-04-24T19:16:41.960Z,100962.69
2023-04-24T19:19:10.319Z,100968.69
2023-04-24T19:21:38.995Z,100963.16
2023-04-24T19:24:09.566Z,100966.50
2023-04-24T19:26:37.943Z,100982.28
2023-04-24T19:29:07.684Z,100979.16
2023-04-24T19:31:35.991Z,100987.59
2023-04-24T19:34:04.257Z,100984.75
2023-04-24T19:36:33.997Z,100982.78
2023-04-24T19:39:02.617Z,100983.78
2023-04-24T19:41:30.963Z,100988.75
2023-04-24T19:43:59.216Z,100989.06
2023-04-24T19:46:28.876Z,101000.22
2023-04-24T19:48:57.160Z,100997.38
2023-04-24T19:51:25.874Z,100990.66
2023-04-24T19:53:54.651Z,100997.50
2023-04-24T19:56:23.132Z,100997.41
2023-04-24T19:58:51.437Z,101000.78
2023-04-24T20:01:19.998Z,100994.91
2023-04-24T20:03:49.785Z,101003.34
2023-04-24T20:06:18.104Z,101004.81
2023-04-24T20:08:46.483Z,100999.31
2023-04-24T20:11:15.882Z,100999.16
2023-04-24T20:13:44.171Z,101002.09
2023-04-24T20:16:12.550Z,101010.38
2023-04-24T20:18:40.937Z,101003.00
2023-04-24T20:21:10.832Z,101007.16
2023-04-24T20:23:39.365Z,101003.13
2023-04-24T20:26:08.396Z,101009.16
2023-04-24T20:28:36.811Z,101007.44
2023-04-24T20:31:05.231Z,101008.13
2023-04-24T20:33:33.531Z,101004.97
2023-04-24T20:36:01.749Z,101010.22
2023-04-24T20:38:31.413Z,101005.53
2023-04-24T20:41:00.215Z,100999.66
2023-04-24T20:43:29.333Z,101000.00
2023-04-24T20:45:59.228Z,100997.63
2023-04-24T20:48:27.656Z,101000.63
2023-04-24T20:50:56.008Z,101002.13
2023-04-24T20:53:25.028Z,101005.78
2023-04-24T20:55:54.800Z,101014.38
2023-04-24T20:58:23.883Z,101017.69
2023-04-24T21:00:52.949Z,101007.25
2023-04-24T21:03:21.720Z,101015.66
2023-04-24T21:05:50.150Z,101015.22
2023-04-24T21:08:18.678Z,101009.38
2023-04-24T21:10:46.980Z,101012.41
2023-04-24T21:13:16.680Z,101008.44
2023-04-24T21:15:44.962Z,101010.25
2023-04-24T21:18:13.224Z,101011.69
2023-04-24T21:20:41.463Z,101008.19
2023-04-24T21:23:09.795Z,101008.84
2023-04-24T21:25:38.753Z,101006.81
2023-04-24T21:28:07.076Z,101000.19
2023-04-24T21:30:36.721Z,101002.44
2023-04-24T21:33:05.097Z,101003.06
2023-04-24T21:35:33.846Z,100995.97
2023-04-24T21:38:02.040Z,100992.03
2023-04-24T21:40:30.490Z,100993.78
2023-04-24T21:42:58.745Z,101005.28
2023-04-24T21:45:27.201Z,100997.03
2023-04-24T21:47:58.673Z,100995.00
2023-04-24T21:50:26.935Z,100992.63
2023-04-24T21:52:55.156Z,100996.78
2023-04-24T21:55:23.419Z,100994.75
2023-04-24T21:57:52.094Z,100998.06
2023-04-24T22:00:21.383Z,100994.91
2023-04-24T22:02:50.274Z,100994.13
2023-04-24T22:05:20.337Z,100992.88
2023-04-24T22:07:50.536Z,100993.53
2023-04-24T22:10:19.317Z,100999.25
2023-04-24T22:12:48.186Z,100999.09
2023-04-24T22:15:16.380Z,101005.19
2023-04-24T22:17:44.673Z,101003.09
2023-04-24T22:20:14.039Z,100998.06
2023-04-24T22:22:43.863Z,100998.72
2023-04-24T22:25:12.392Z,101002.84
2023-04-24T22:27:40.631Z,101008.88
2023-04-24T22:30:10.522Z,100998.41
2023-04-24T22:32:39.186Z,101013.78
2023-04-24T22:35:10.048Z,101010.63
2023-04-24T22:37:38.214Z,101007.94
2023-04-24T22:40:10.357Z,100999.84
2023-04-24T22:42:38.746Z,101005.25
2023-04-24T22:45:11.289Z,100993.69
2023-04-24T22:47:39.755Z,100990.53
2023-04-24T22:50:10.698Z,100996.72
2023-04-24T22:52:41.010Z,100998.94
2023-04-24T22:55:12.036Z,101001.16
2023-04-24T22:57:40.400Z,100992.63
2023-04-24T23:00:12.664Z,100995.63
2023-04-24T23:02:42.313Z,100988.53
2023-04-24T23:05:12.058Z,100996.59
2023-04-24T23:07:40.292Z,100990.31
2023-04-24T23:10:11.149Z,100995.22
2023-04-24T23:12:39.775Z,100995.56
2023-04-24T23:15:10.756Z,101001.22
2023-04-24T23:17:39.226Z,101003.44
2023-04-24T23:20:09.290Z,101001.75
2023-04-24T23:22:37.559Z,101007.91
2023-04-24T23:25:08.433Z,101003.31
2023-04-24T23:27:38.778Z,101006.81
2023-04-24T23:30:08.984Z,101002.53
2023-04-24T23:32:37.204Z,101016.00
2023-04-24T23:35:06.485Z,101008.69
2023-04-24T23:37:35.650Z,101010.59
2023-04-24T23:40:06.096Z,101012.19
2023-04-24T23:42:34.390Z,101014.22
2023-04-24T23:45:04.353Z,101020.06
2023-04-24T23:47:32.746Z,101007.41
2023-04-24T23:50:01.183Z,101005.97
2023-04-24T23:52:29.525Z,101004.09
2023-04-24T23:54:57.735Z,101006.44
2023-04-24T23:57:26.040Z,101004.69
2023-04-24T23:59:54.205Z,101005.16
